sensor_id;sensor_type;location;lat;lon;timestamp;pressure;altitude;pressure_sealevel;temperature;humidity
48810;BME280;40070;47.322;18.784;2023-05-21T00:00:36;1003.68;;;19.33;60.93
48810;BME280;40070;47.322;18.784;2023-05-21T00:02:38;1003.61;;;19.40;60.75
48810;BME280;40070;47.322;18.784;2023-05-21T00:04:39;1003.57;;;19.65;59.94
48810;BME280;40070;47.322;18.784;2023-05-21T00:06:40;1003.55;;;19.61;59.96
48810;BME280;40070;47.322;18.784;2023-05-21T00:08:41;1003.53;;;19.57;60.47
48810;BME280;40070;47.322;18.784;2023-05-21T00:10:42;1003.54;;;19.75;60.30
48810;BME280;40070;47.322;18.784;2023-05-21T00:12:43;1003.63;;;19.67;59.86
48810;BME280;40070;47.322;18.784;2023-05-21T00:14:44;1003.64;;;19.53;60.24
48810;BME280;40070;47.322;18.784;2023-05-21T00:16:45;1003.76;;;19.37;60.64
48810;BME280;40070;47.322;18.784;2023-05-21T00:18:46;1003.73;;;19.44;60.47
48810;BME280;40070;47.322;18.784;2023-05-21T00:20:47;1003.77;;;19.37;60.49
48810;BME280;40070;47.322;18.784;2023-05-21T00:22:48;1003.72;;;19.43;60.16
48810;BME280;40070;47.322;18.784;2023-05-21T00:24:48;1003.71;;;19.29;60.61
48810;BME280;40070;47.322;18.784;2023-05-21T00:26:49;1003.68;;;19.47;60.03
48810;BME280;40070;47.322;18.784;2023-05-21T00:28:50;1003.72;;;19.18;60.83
48810;BME280;40070;47.322;18.784;2023-05-21T00:30:51;1003.74;;;19.20;60.80
48810;BME280;40070;47.322;18.784;2023-05-21T00:32:52;1003.73;;;19.15;61.16
48810;BME280;40070;47.322;18.784;2023-05-21T00:34:53;1003.73;;;19.00;61.47
48810;BME280;40070;47.322;18.784;2023-05-21T00:36:54;1003.73;;;19.09;61.44
48810;BME280;40070;47.322;18.784;2023-05-21T00:38:55;1003.67;;;18.85;62.00
48810;BME280;40070;47.322;18.784;2023-05-21T00:40:56;1003.70;;;19.35;60.69
48810;BME280;40070;47.322;18.784;2023-05-21T00:42:56;1003.63;;;19.17;61.08
48810;BME280;40070;47.322;18.784;2023-05-21T00:44:57;1003.62;;;19.22;61.27
48810;BME280;40070;47.322;18.784;2023-05-21T00:46:59;1003.62;;;19.17;62.04
48810;BME280;40070;47.322;18.784;2023-05-21T00:49:00;1003.69;;;19.00;61.65
48810;BME280;40070;47.322;18.784;2023-05-21T00:51:01;1003.71;;;18.87;62.10
48810;BME280;40070;47.322;18.784;2023-05-21T00:53:02;1003.68;;;18.87;62.09
48810;BME280;40070;47.322;18.784;2023-05-21T00:55:03;1003.63;;;18.72;63.26
48810;BME280;40070;47.322;18.784;2023-05-21T00:57:04;1003.59;;;18.97;62.75
48810;BME280;40070;47.322;18.784;2023-05-21T00:59:05;1003.59;;;19.04;62.51
48810;BME280;40070;47.322;18.784;2023-05-21T01:01:07;1003.55;;;18.74;63.61
48810;BME280;40070;47.322;18.784;2023-05-21T01:03:07;1003.55;;;18.55;64.14
48810;BME280;40070;47.322;18.784;2023-05-21T01:05:08;1003.54;;;18.46;64.49
48810;BME280;40070;47.322;18.784;2023-05-21T01:07:09;1003.52;;;18.72;63.77
48810;BME280;40070;47.322;18.784;2023-05-21T01:09:10;1003.53;;;18.80;63.74
48810;BME280;40070;47.322;18.784;2023-05-21T01:11:11;1003.55;;;18.72;64.03
48810;BME280;40070;47.322;18.784;2023-05-21T01:13:13;1003.52;;;18.36;64.84
48810;BME280;40070;47.322;18.784;2023-05-21T01:15:14;1003.54;;;18.46;64.42
48810;BME280;40070;47.322;18.784;2023-05-21T01:17:15;1003.55;;;18.76;63.49
48810;BME280;40070;47.322;18.784;2023-05-21T01:19:17;1003.53;;;18.66;64.16
48810;BME280;40070;47.322;18.784;2023-05-21T01:21:19;1003.53;;;18.48;64.12
48810;BME280;40070;47.322;18.784;2023-05-21T01:23:21;1003.55;;;18.22;64.80
48810;BME280;40070;47.322;18.784;2023-05-21T01:25:22;1003.51;;;18.23;65.00
48810;BME280;40070;47.322;18.784;2023-05-21T01:27:23;1003.55;;;18.40;64.66
48810;BME280;40070;47.322;18.784;2023-05-21T01:29:24;1003.51;;;18.21;65.35
48810;BME280;40070;47.322;18.784;2023-05-21T01:31:29;1003.49;;;18.35;64.89
48810;BME280;40070;47.322;18.784;2023-05-21T01:33:36;1003.49;;;18.29;65.06
48810;BME280;40070;47.322;18.784;2023-05-21T01:35:40;1003.49;;;18.31;65.42
48810;BME280;40070;47.322;18.784;2023-05-21T01:37:51;1003.45;;;18.46;64.76
48810;BME280;40070;47.322;18.784;2023-05-21T01:39:55;1003.50;;;18.52;64.63
48810;BME280;40070;47.322;18.784;2023-05-21T01:41:56;1003.53;;;18.55;64.16
48810;BME280;40070;47.322;18.784;2023-05-21T01:43:57;1003.54;;;18.55;64.20
48810;BME280;40070;47.322;18.784;2023-05-21T01:45:59;1003.55;;;18.46;64.17
48810;BME280;40070;47.322;18.784;2023-05-21T01:48:00;1003.49;;;18.24;64.78
48810;BME280;40070;47.322;18.784;2023-05-21T01:50:03;1003.55;;;18.45;64.65
48810;BME280;40070;47.322;18.784;2023-05-21T01:52:04;1003.55;;;18.47;64.29
48810;BME280;40070;47.322;18.784;2023-05-21T01:54:05;1003.53;;;18.44;64.30
48810;BME280;40070;47.322;18.784;2023-05-21T01:56:06;1003.49;;;18.28;64.81
48810;BME280;40070;47.322;18.784;2023-05-21T01:58:07;1003.52;;;18.49;64.49
48810;BME280;40070;47.322;18.784;2023-05-21T02:00:08;1003.51;;;18.41;64.72
48810;BME280;40070;47.322;18.784;2023-05-21T02:02:09;1003.52;;;18.26;65.02
48810;BME280;40070;47.322;18.784;2023-05-21T02:04:10;1003.47;;;18.18;65.12
48810;BME280;40070;47.322;18.784;2023-05-21T02:06:11;1003.49;;;18.06;65.20
48810;BME280;40070;47.322;18.784;2023-05-21T02:08:12;1003.55;;;18.20;64.88
48810;BME280;40070;47.322;18.784;2023-05-21T02:10:13;1003.53;;;18.27;64.68
48810;BME280;40070;47.322;18.784;2023-05-21T02:12:14;1003.47;;;18.26;64.77
48810;BME280;40070;47.322;18.784;2023-05-21T02:14:15;1003.43;;;18.02;65.52
48810;BME280;40070;47.322;18.784;2023-05-21T02:16:15;1003.46;;;17.82;65.68
48810;BME280;40070;47.322;18.784;2023-05-21T02:18:16;1003.44;;;17.94;65.36
48810;BME280;40070;47.322;18.784;2023-05-21T02:20:17;1003.46;;;18.03;65.09
48810;BME280;40070;47.322;18.784;2023-05-21T02:22:18;1003.48;;;18.04;65.09
48810;BME280;40070;47.322;18.784;2023-05-21T02:24:19;1003.45;;;17.65;66.20
48810;BME280;40070;47.322;18.784;2023-05-21T02:26:20;1003.44;;;17.58;66.57
48810;BME280;40070;47.322;18.784;2023-05-21T02:28:21;1003.44;;;17.82;65.83
48810;BME280;40070;47.322;18.784;2023-05-21T02:30:22;1003.44;;;17.50;66.88
48810;BME280;40070;47.322;18.784;2023-05-21T02:32:23;1003.44;;;17.53;66.78
48810;BME280;40070;47.322;18.784;2023-05-21T02:34:24;1003.42;;;17.57;66.39
48810;BME280;40070;47.322;18.784;2023-05-21T02:36:25;1003.46;;;17.56;66.52
48810;BME280;40070;47.322;18.784;2023-05-21T02:38:26;1003.47;;;17.43;66.97
48810;BME280;40070;47.322;18.784;2023-05-21T02:40:26;1003.39;;;17.84;65.76
48810;BME280;40070;47.322;18.784;2023-05-21T02:42:27;1003.42;;;17.82;65.40
48810;BME280;40070;47.322;18.784;2023-05-21T02:44:28;1003.44;;;17.56;66.39
48810;BME280;40070;47.322;18.784;2023-05-21T02:46:29;1003.43;;;17.80;66.03
48810;BME280;40070;47.322;18.784;2023-05-21T02:48:30;1003.42;;;17.71;66.13
48810;BME280;40070;47.322;18.784;2023-05-21T02:50:31;1003.44;;;17.88;65.74
48810;BME280;40070;47.322;18.784;2023-05-21T02:52:32;1003.43;;;17.80;65.75
48810;BME280;40070;47.322;18.784;2023-05-21T02:54:33;1003.45;;;17.82;65.54
48810;BME280;40070;47.322;18.784;2023-05-21T02:56:34;1003.46;;;17.81;65.69
48810;BME280;40070;47.322;18.784;2023-05-21T02:58:35;1003.45;;;17.90;65.54
48810;BME280;40070;47.322;18.784;2023-05-21T03:00:36;1003.46;;;17.59;65.78
48810;BME280;40070;47.322;18.784;2023-05-21T03:02:37;1003.43;;;17.77;65.53
48810;BME280;40070;47.322;18.784;2023-05-21T03:04:39;1003.42;;;17.64;66.23
48810;BME280;40070;47.322;18.784;2023-05-21T03:06:40;1003.43;;;17.52;65.69
48810;BME280;40070;47.322;18.784;2023-05-21T03:08:41;1003.43;;;17.49;65.44
48810;BME280;40070;47.322;18.784;2023-05-21T03:10:42;1003.42;;;17.59;66.05
48810;BME280;40070;47.322;18.784;2023-05-21T03:12:43;1003.39;;;17.67;65.53
48810;BME280;40070;47.322;18.784;2023-05-21T03:14:44;1003.39;;;17.57;65.91
48810;BME280;40070;47.322;18.784;2023-05-21T03:16:45;1003.40;;;17.67;65.62
48810;BME280;40070;47.322;18.784;2023-05-21T03:18:45;1003.41;;;17.67;65.54
48810;BME280;40070;47.322;18.784;2023-05-21T03:20:46;1003.40;;;17.83;64.82
48810;BME280;40070;47.322;18.784;2023-05-21T03:22:47;1003.48;;;17.52;65.54
48810;BME280;40070;47.322;18.784;2023-05-21T03:24:48;1003.43;;;17.71;64.72
48810;BME280;40070;47.322;18.784;2023-05-21T03:26:49;1003.43;;;17.71;64.45
48810;BME280;40070;47.322;18.784;2023-05-21T03:28:50;1003.43;;;17.56;65.58
48810;BME280;40070;47.322;18.784;2023-05-21T03:30:51;1003.43;;;17.49;65.88
48810;BME280;40070;47.322;18.784;2023-05-21T03:32:52;1003.43;;;17.68;65.36
48810;BME280;40070;47.322;18.784;2023-05-21T03:34:53;1003.47;;;17.34;66.04
48810;BME280;40070;47.322;18.784;2023-05-21T03:36:53;1003.47;;;17.37;66.10
48810;BME280;40070;47.322;18.784;2023-05-21T03:38:54;1003.56;;;17.21;66.51
48810;BME280;40070;47.322;18.784;2023-05-21T03:40:55;1003.51;;;17.47;66.10
48810;BME280;40070;47.322;18.784;2023-05-21T03:42:56;1003.49;;;17.49;65.83
48810;BME280;40070;47.322;18.784;2023-05-21T03:44:57;1003.46;;;17.49;65.78
48810;BME280;40070;47.322;18.784;2023-05-21T03:46:58;1003.47;;;17.67;65.97
48810;BME280;40070;47.322;18.784;2023-05-21T03:48:59;1003.52;;;17.60;65.51
48810;BME280;40070;47.322;18.784;2023-05-21T03:51:00;1003.57;;;17.48;65.66
48810;BME280;40070;47.322;18.784;2023-05-21T03:53:00;1003.56;;;17.57;66.18
48810;BME280;40070;47.322;18.784;2023-05-21T03:55:01;1003.50;;;17.76;65.34
48810;BME280;40070;47.322;18.784;2023-05-21T03:57:02;1003.51;;;17.55;65.65
48810;BME280;40070;47.322;18.784;2023-05-21T03:59:03;1003.60;;;17.42;65.67
48810;BME280;40070;47.322;18.784;2023-05-21T04:01:04;1003.54;;;17.51;65.50
48810;BME280;40070;47.322;18.784;2023-05-21T04:03:05;1003.55;;;17.81;64.28
48810;BME280;40070;47.322;18.784;2023-05-21T04:05:06;1003.57;;;17.70;64.49
48810;BME280;40070;47.322;18.784;2023-05-21T04:07:07;1003.54;;;18.17;63.19
48810;BME280;40070;47.322;18.784;2023-05-21T04:09:08;1003.56;;;18.20;63.15
48810;BME280;40070;47.322;18.784;2023-05-21T04:11:09;1003.57;;;17.87;65.00
48810;BME280;40070;47.322;18.784;2023-05-21T04:13:10;1003.61;;;18.18;63.97
48810;BME280;40070;47.322;18.784;2023-05-21T04:15:11;1003.58;;;18.14;64.04
48810;BME280;40070;47.322;18.784;2023-05-21T04:17:11;1003.52;;;18.03;64.50
48810;BME280;40070;47.322;18.784;2023-05-21T04:19:12;1003.60;;;18.25;63.70
48810;BME280;40070;47.322;18.784;2023-05-21T04:21:13;1003.59;;;18.32;63.03
48810;BME280;40070;47.322;18.784;2023-05-21T04:23:14;1003.60;;;18.25;63.69
48810;BME280;40070;47.322;18.784;2023-05-21T04:25:15;1003.61;;;18.45;63.01
48810;BME280;40070;47.322;18.784;2023-05-21T04:27:16;1003.68;;;18.33;62.93
48810;BME280;40070;47.322;18.784;2023-05-21T04:29:17;1003.66;;;18.34;63.96
48810;BME280;40070;47.322;18.784;2023-05-21T04:31:18;1003.71;;;18.38;62.35
48810;BME280;40070;47.322;18.784;2023-05-21T04:33:19;1003.69;;;18.51;61.62
48810;BME280;40070;47.322;18.784;2023-05-21T04:35:19;1003.72;;;18.47;61.50
48810;BME280;40070;47.322;18.784;2023-05-21T04:37:20;1003.72;;;18.69;61.28
48810;BME280;40070;47.322;18.784;2023-05-21T04:39:21;1003.72;;;18.67;61.13
48810;BME280;40070;47.322;18.784;2023-05-21T04:41:22;1003.72;;;18.70;61.05
48810;BME280;40070;47.322;18.784;2023-05-21T04:43:23;1003.75;;;18.78;60.87
48810;BME280;40070;47.322;18.784;2023-05-21T04:45:24;1003.74;;;18.82;60.15
48810;BME280;40070;47.322;18.784;2023-05-21T04:47:25;1003.73;;;19.02;59.92
48810;BME280;40070;47.322;18.784;2023-05-21T04:49:26;1003.77;;;18.88;60.32
48810;BME280;40070;47.322;18.784;2023-05-21T04:51:27;1003.77;;;18.95;59.95
48810;BME280;40070;47.322;18.784;2023-05-21T04:53:27;1003.74;;;18.90;60.34
48810;BME280;40070;47.322;18.784;2023-05-21T04:55:28;1003.74;;;18.99;61.11
48810;BME280;40070;47.322;18.784;2023-05-21T04:57:29;1003.71;;;19.22;60.55
48810;BME280;40070;47.322;18.784;2023-05-21T04:59:30;1003.71;;;19.33;60.29
48810;BME280;40070;47.322;18.784;2023-05-21T05:01:31;1003.70;;;19.34;59.89
48810;BME280;40070;47.322;18.784;2023-05-21T05:03:32;1003.71;;;19.35;60.39
48810;BME280;40070;47.322;18.784;2023-05-21T05:05:33;1003.71;;;19.51;60.37
48810;BME280;40070;47.322;18.784;2023-05-21T05:07:34;1003.69;;;19.59;61.17
48810;BME280;40070;47.322;18.784;2023-05-21T05:09:35;1003.66;;;19.50;60.65
48810;BME280;40070;47.322;18.784;2023-05-21T05:11:36;1003.68;;;19.66;60.78
48810;BME280;40070;47.322;18.784;2023-05-21T05:13:38;1003.65;;;19.92;59.37
48810;BME280;40070;47.322;18.784;2023-05-21T05:15:39;1003.61;;;20.13;59.13
48810;BME280;40070;47.322;18.784;2023-05-21T05:17:40;1003.59;;;20.19;59.02
48810;BME280;40070;47.322;18.784;2023-05-21T05:22:06;1003.59;;;20.55;58.67
48810;BME280;40070;47.322;18.784;2023-05-21T05:24:07;1003.65;;;20.57;58.17
48810;BME280;40070;47.322;18.784;2023-05-21T05:26:08;1003.63;;;20.51;56.69
48810;BME280;40070;47.322;18.784;2023-05-21T05:28:08;1003.60;;;20.48;55.97
48810;BME280;40070;47.322;18.784;2023-05-21T05:30:10;1003.62;;;20.35;56.07
48810;BME280;40070;47.322;18.784;2023-05-21T05:32:11;1003.65;;;20.34;56.71
48810;BME280;40070;47.322;18.784;2023-05-21T05:34:11;1003.63;;;20.46;56.85
48810;BME280;40070;47.322;18.784;2023-05-21T05:36:12;1003.61;;;20.59;57.15
48810;BME280;40070;47.322;18.784;2023-05-21T05:38:13;1003.68;;;20.88;55.65
48810;BME280;40070;47.322;18.784;2023-05-21T05:40:14;1003.65;;;20.97;55.03
48810;BME280;40070;47.322;18.784;2023-05-21T05:42:15;1003.64;;;20.95;56.05
48810;BME280;40070;47.322;18.784;2023-05-21T05:44:16;1003.60;;;20.86;55.94
48810;BME280;40070;47.322;18.784;2023-05-21T05:46:17;1003.64;;;21.25;56.24
48810;BME280;40070;47.322;18.784;2023-05-21T05:48:18;1003.60;;;21.14;53.94
48810;BME280;40070;47.322;18.784;2023-05-21T05:50:19;1003.60;;;20.92;53.85
48810;BME280;40070;47.322;18.784;2023-05-21T05:52:19;1003.60;;;20.82;54.27
48810;BME280;40070;47.322;18.784;2023-05-21T05:54:20;1003.59;;;20.81;54.22
48810;BME280;40070;47.322;18.784;2023-05-21T05:56:21;1003.49;;;20.79;54.60
48810;BME280;40070;47.322;18.784;2023-05-21T05:58:22;1003.56;;;20.94;54.95
48810;BME280;40070;47.322;18.784;2023-05-21T06:00:23;1003.54;;;21.04;54.15
48810;BME280;40070;47.322;18.784;2023-05-21T06:02:24;1003.54;;;21.46;53.82
48810;BME280;40070;47.322;18.784;2023-05-21T06:04:25;1003.61;;;21.12;52.91
48810;BME280;40070;47.322;18.784;2023-05-21T06:06:25;1003.60;;;21.14;52.39
48810;BME280;40070;47.322;18.784;2023-05-21T06:08:26;1003.61;;;21.09;52.72
48810;BME280;40070;47.322;18.784;2023-05-21T06:10:27;1003.63;;;21.05;52.92
48810;BME280;40070;47.322;18.784;2023-05-21T06:12:28;1003.60;;;21.19;52.71
48810;BME280;40070;47.322;18.784;2023-05-21T06:14:29;1003.64;;;21.29;52.79
48810;BME280;40070;47.322;18.784;2023-05-21T06:16:30;1003.59;;;21.30;52.03
48810;BME280;40070;47.322;18.784;2023-05-21T06:18:31;1003.62;;;21.41;51.98
48810;BME280;40070;47.322;18.784;2023-05-21T06:20:32;1003.59;;;21.42;51.68
48810;BME280;40070;47.322;18.784;2023-05-21T06:22:32;1003.59;;;21.52;52.27
48810;BME280;40070;47.322;18.784;2023-05-21T06:24:33;1003.54;;;21.79;52.33
48810;BME280;40070;47.322;18.784;2023-05-21T06:26:34;1003.57;;;21.91;50.64
48810;BME280;40070;47.322;18.784;2023-05-21T06:28:35;1003.50;;;21.93;50.86
48810;BME280;40070;47.322;18.784;2023-05-21T06:30:36;1003.51;;;21.81;50.24
48810;BME280;40070;47.322;18.784;2023-05-21T06:32:37;1003.48;;;21.70;50.90
48810;BME280;40070;47.322;18.784;2023-05-21T06:34:38;1003.45;;;21.88;50.70
48810;BME280;40070;47.322;18.784;2023-05-21T06:36:39;1003.42;;;21.95;51.71
48810;BME280;40070;47.322;18.784;2023-05-21T06:38:39;1003.36;;;22.18;51.39
48810;BME280;40070;47.322;18.784;2023-05-21T06:40:40;1003.43;;;22.25;49.92
48810;BME280;40070;47.322;18.784;2023-05-21T06:42:41;1003.42;;;22.19;50.60
48810;BME280;40070;47.322;18.784;2023-05-21T06:44:42;1003.34;;;22.08;49.26
48810;BME280;40070;47.322;18.784;2023-05-21T06:46:43;1003.34;;;22.15;50.13
48810;BME280;40070;47.322;18.784;2023-05-21T06:48:44;1003.35;;;22.19;49.93
48810;BME280;40070;47.322;18.784;2023-05-21T06:50:45;1003.31;;;22.54;49.81
48810;BME280;40070;47.322;18.784;2023-05-21T06:52:46;1003.33;;;22.52;48.08
48810;BME280;40070;47.322;18.784;2023-05-21T06:54:47;1003.26;;;22.42;48.37
48810;BME280;40070;47.322;18.784;2023-05-21T06:56:48;1003.27;;;22.50;48.86
48810;BME280;40070;47.322;18.784;2023-05-21T06:58:49;1003.30;;;22.38;49.08
48810;BME280;40070;47.322;18.784;2023-05-21T07:00:50;1003.28;;;22.48;48.20
48810;BME280;40070;47.322;18.784;2023-05-21T07:02:51;1003.23;;;22.54;48.39
48810;BME280;40070;47.322;18.784;2023-05-21T07:04:52;1003.20;;;22.50;48.19
48810;BME280;40070;47.322;18.784;2023-05-21T07:06:52;1003.17;;;22.59;49.38
48810;BME280;40070;47.322;18.784;2023-05-21T07:08:53;1003.14;;;22.82;48.93
48810;BME280;40070;47.322;18.784;2023-05-21T07:10:54;1003.17;;;22.96;48.92
48810;BME280;40070;47.322;18.784;2023-05-21T07:12:55;1003.15;;;23.18;47.53
48810;BME280;40070;47.322;18.784;2023-05-21T07:14:56;1003.20;;;23.40;47.53
48810;BME280;40070;47.322;18.784;2023-05-21T07:16:57;1003.25;;;23.22;47.51
48810;BME280;40070;47.322;18.784;2023-05-21T07:18:58;1003.22;;;23.33;48.35
48810;BME280;40070;47.322;18.784;2023-05-21T07:20:58;1003.15;;;23.41;47.82
48810;BME280;40070;47.322;18.784;2023-05-21T07:22:59;1003.13;;;23.42;46.96
48810;BME280;40070;47.322;18.784;2023-05-21T07:25:00;1003.15;;;23.67;47.56
48810;BME280;40070;47.322;18.784;2023-05-21T07:27:01;1003.14;;;23.32;47.03
48810;BME280;40070;47.322;18.784;2023-05-21T07:29:02;1003.17;;;23.48;47.16
48810;BME280;40070;47.322;18.784;2023-05-21T07:31:03;1003.16;;;23.68;46.52
48810;BME280;40070;47.322;18.784;2023-05-21T07:33:04;1003.17;;;23.72;46.58
48810;BME280;40070;47.322;18.784;2023-05-21T07:35:05;1003.17;;;23.70;47.32
48810;BME280;40070;47.322;18.784;2023-05-21T07:37:06;1003.18;;;23.86;47.06
48810;BME280;40070;47.322;18.784;2023-05-21T07:39:07;1003.17;;;24.06;46.03
48810;BME280;40070;47.322;18.784;2023-05-21T07:41:08;1003.13;;;24.09;46.26
48810;BME280;40070;47.322;18.784;2023-05-21T07:43:09;1003.17;;;24.22;46.01
48810;BME280;40070;47.322;18.784;2023-05-21T07:45:10;1003.15;;;24.22;47.27
48810;BME280;40070;47.322;18.784;2023-05-21T07:47:11;1003.15;;;24.42;47.11
48810;BME280;40070;47.322;18.784;2023-05-21T07:49:12;1003.15;;;24.44;46.75
48810;BME280;40070;47.322;18.784;2023-05-21T07:51:13;1003.06;;;24.14;44.94
48810;BME280;40070;47.322;18.784;2023-05-21T07:53:14;1003.07;;;24.11;45.87
48810;BME280;40070;47.322;18.784;2023-05-21T07:55:15;1003.14;;;24.20;44.74
48810;BME280;40070;47.322;18.784;2023-05-21T07:57:16;1003.07;;;23.92;46.07
48810;BME280;40070;47.322;18.784;2023-05-21T07:59:17;1003.14;;;24.10;45.32
48810;BME280;40070;47.322;18.784;2023-05-21T08:01:18;1003.09;;;23.72;46.00
48810;BME280;40070;47.322;18.784;2023-05-21T08:03:18;1003.04;;;24.03;46.41
48810;BME280;40070;47.322;18.784;2023-05-21T08:05:19;1003.06;;;24.04;46.04
48810;BME280;40070;47.322;18.784;2023-05-21T08:07:20;1003.06;;;24.18;44.95
48810;BME280;40070;47.322;18.784;2023-05-21T08:09:21;1003.05;;;24.51;45.66
48810;BME280;40070;47.322;18.784;2023-05-21T08:11:22;1003.06;;;24.58;45.62
48810;BME280;40070;47.322;18.784;2023-05-21T08:13:23;1003.07;;;24.72;44.92
48810;BME280;40070;47.322;18.784;2023-05-21T08:15:24;1003.06;;;24.80;44.16
48810;BME280;40070;47.322;18.784;2023-05-21T08:17:25;1003.14;;;24.71;44.42
48810;BME280;40070;47.322;18.784;2023-05-21T08:19:26;1003.07;;;24.58;44.83
48810;BME280;40070;47.322;18.784;2023-05-21T08:21:26;1003.11;;;24.87;46.01
48810;BME280;40070;47.322;18.784;2023-05-21T08:23:27;1003.11;;;24.77;43.97
48810;BME280;40070;47.322;18.784;2023-05-21T08:25:28;1003.12;;;24.72;43.46
48810;BME280;40070;47.322;18.784;2023-05-21T08:27:29;1003.11;;;24.72;43.78
48810;BME280;40070;47.322;18.784;2023-05-21T08:29:30;1003.10;;;24.86;44.61
48810;BME280;40070;47.322;18.784;2023-05-21T08:31:31;1003.08;;;25.09;43.98
48810;BME280;40070;47.322;18.784;2023-05-21T08:33:35;1003.08;;;25.38;44.38
48810;BME280;40070;47.322;18.784;2023-05-21T08:35:36;1003.06;;;25.56;44.58
48810;BME280;40070;47.322;18.784;2023-05-21T08:37:37;1003.11;;;25.40;42.92
48810;BME280;40070;47.322;18.784;2023-05-21T08:39:37;1003.09;;;25.49;43.75
48810;BME280;40070;47.322;18.784;2023-05-21T08:41:38;1003.19;;;25.37;43.41
48810;BME280;40070;47.322;18.784;2023-05-21T08:43:40;1003.14;;;25.46;43.58
48810;BME280;40070;47.322;18.784;2023-05-21T08:45:46;1003.05;;;25.73;42.47
48810;BME280;40070;47.322;18.784;2023-05-21T08:47:55;1003.01;;;25.82;42.57
48810;BME280;40070;47.322;18.784;2023-05-21T08:49:56;1003.00;;;25.94;42.90
48810;BME280;40070;47.322;18.784;2023-05-21T08:51:58;1003.02;;;26.07;41.34
48810;BME280;40070;47.322;18.784;2023-05-21T08:53:59;1003.05;;;26.07;41.63
48810;BME280;40070;47.322;18.784;2023-05-21T08:56:01;1003.09;;;26.08;42.29
48810;BME280;40070;47.322;18.784;2023-05-21T08:58:02;1003.05;;;26.08;40.39
48810;BME280;40070;47.322;18.784;2023-05-21T09:00:04;1002.99;;;25.88;41.86
48810;BME280;40070;47.322;18.784;2023-05-21T09:02:05;1003.01;;;26.17;41.33
48810;BME280;40070;47.322;18.784;2023-05-21T09:04:06;1003.01;;;26.23;41.23
48810;BME280;40070;47.322;18.784;2023-05-21T09:06:11;1003.02;;;26.55;39.31
48810;BME280;40070;47.322;18.784;2023-05-21T09:08:13;1002.97;;;26.28;41.64
48810;BME280;40070;47.322;18.784;2023-05-21T09:10:17;1002.99;;;26.67;42.02
48810;BME280;40070;47.322;18.784;2023-05-21T09:12:22;1002.99;;;26.63;41.35
48810;BME280;40070;47.322;18.784;2023-05-21T09:14:23;1002.98;;;26.68;39.64
48810;BME280;40070;47.322;18.784;2023-05-21T09:16:24;1003.02;;;26.76;40.10
48810;BME280;40070;47.322;18.784;2023-05-21T09:18:24;1003.01;;;27.17;38.87
48810;BME280;40070;47.322;18.784;2023-05-21T09:20:26;1003.01;;;27.08;39.26
48810;BME280;40070;47.322;18.784;2023-05-21T09:22:27;1002.98;;;26.83;38.57
48810;BME280;40070;47.322;18.784;2023-05-21T09:24:30;1003.01;;;26.88;38.35
48810;BME280;40070;47.322;18.784;2023-05-21T09:26:31;1002.94;;;27.05;39.35
48810;BME280;40070;47.322;18.784;2023-05-21T09:28:32;1002.96;;;27.40;38.27
48810;BME280;40070;47.322;18.784;2023-05-21T09:30:35;1002.98;;;27.39;39.57
48810;BME280;40070;47.322;18.784;2023-05-21T09:32:36;1002.97;;;27.03;38.29
48810;BME280;40070;47.322;18.784;2023-05-21T09:34:37;1002.99;;;27.17;38.05
48810;BME280;40070;47.322;18.784;2023-05-21T09:36:38;1002.94;;;27.59;37.82
48810;BME280;40070;47.322;18.784;2023-05-21T09:38:39;1002.94;;;27.84;36.56
48810;BME280;40070;47.322;18.784;2023-05-21T09:40:42;1002.93;;;27.89;37.52
48810;BME280;40070;47.322;18.784;2023-05-21T09:42:47;1002.97;;;27.71;37.36
48810;BME280;40070;47.322;18.784;2023-05-21T09:44:48;1003.02;;;27.81;36.38
48810;BME280;40070;47.322;18.784;2023-05-21T09:46:49;1002.96;;;27.89;36.62
48810;BME280;40070;47.322;18.784;2023-05-21T09:48:49;1002.96;;;27.95;35.58
48810;BME280;40070;47.322;18.784;2023-05-21T09:50:50;1003.00;;;27.81;35.45
48810;BME280;40070;47.322;18.784;2023-05-21T09:52:51;1002.93;;;27.44;35.30
48810;BME280;40070;47.322;18.784;2023-05-21T09:54:52;1002.95;;;27.83;35.52
48810;BME280;40070;47.322;18.784;2023-05-21T09:56:53;1002.91;;;27.81;34.54
48810;BME280;40070;47.322;18.784;2023-05-21T09:58:55;1002.86;;;27.89;33.24
48810;BME280;40070;47.322;18.784;2023-05-21T10:00:55;1002.87;;;27.96;35.33
48810;BME280;40070;47.322;18.784;2023-05-21T10:02:57;1002.87;;;28.19;35.42
48810;BME280;40070;47.322;18.784;2023-05-21T10:05:00;1002.88;;;27.92;36.08
48810;BME280;40070;47.322;18.784;2023-05-21T10:07:01;1002.88;;;28.06;36.71
48810;BME280;40070;47.322;18.784;2023-05-21T10:09:05;1002.91;;;28.40;35.72
48810;BME280;40070;47.322;18.784;2023-05-21T10:11:06;1002.89;;;28.48;34.79
48810;BME280;40070;47.322;18.784;2023-05-21T10:13:08;1002.87;;;28.46;33.73
48810;BME280;40070;47.322;18.784;2023-05-21T10:15:15;1002.86;;;28.45;34.30
48810;BME280;40070;47.322;18.784;2023-05-21T10:17:16;1002.85;;;28.40;34.54
48810;BME280;40070;47.322;18.784;2023-05-21T10:19:17;1002.83;;;28.57;33.67
48810;BME280;40070;47.322;18.784;2023-05-21T10:21:22;1002.78;;;28.42;33.60
48810;BME280;40070;47.322;18.784;2023-05-21T10:23:23;1002.78;;;28.63;34.31
48810;BME280;40070;47.322;18.784;2023-05-21T10:25:24;1002.78;;;28.23;33.42
48810;BME280;40070;47.322;18.784;2023-05-21T10:27:25;1002.81;;;28.66;34.88
48810;BME280;40070;47.322;18.784;2023-05-21T10:29:27;1002.86;;;28.85;33.59
48810;BME280;40070;47.322;18.784;2023-05-21T10:31:29;1002.79;;;28.70;33.43
48810;BME280;40070;47.322;18.784;2023-05-21T10:33:31;1002.73;;;29.00;32.42
48810;BME280;40070;47.322;18.784;2023-05-21T10:35:33;1002.74;;;29.01;33.03
48810;BME280;40070;47.322;18.784;2023-05-21T10:37:36;1002.79;;;29.21;33.63
48810;BME280;40070;47.322;18.784;2023-05-21T10:39:37;1002.73;;;29.24;32.70
48810;BME280;40070;47.322;18.784;2023-05-21T10:41:50;1002.70;;;29.38;33.41
48810;BME280;40070;47.322;18.784;2023-05-21T10:44:20;1002.63;;;29.52;31.32